createdAt,value
2018-05-03T00:00:45.496Z,59.81
2018-05-03T00:01:45.499Z,60.85
2018-05-03T00:02:45.499Z,61.01
2018-05-03T00:03:45.616Z,60.75
2018-05-03T00:04:45.491Z,59.94
2018-05-03T00:05:45.489Z,60.71
2018-05-03T00:06:45.492Z,59.94
2018-05-03T00:07:45.635Z,60.58
2018-05-03T00:08:45.482Z,61.86
2018-05-03T00:09:45.608Z,61.41
2018-05-03T00:10:45.494Z,61.1
2018-05-03T00:11:45.524Z,61.34
2018-05-03T00:12:45.504Z,61.02
2018-05-03T00:13:45.504Z,61.67
2018-05-03T00:14:45.525Z,61.48
2018-05-03T00:15:45.540Z,61.93
2018-05-03T00:16:45.533Z,61.64
2018-05-03T00:17:45.513Z,61.65
2018-05-03T00:18:45.501Z,61.62
2018-05-03T00:19:45.514Z,61.42
2018-05-03T00:20:45.517Z,60.65
2018-05-03T00:21:45.503Z,61.5
2018-05-03T00:22:45.509Z,61.65
2018-05-03T00:23:45.529Z,61.28
2018-05-03T00:24:45.508Z,61.14
2018-05-03T00:25:45.494Z,60.57
2018-05-03T00:26:45.644Z,60.86
2018-05-03T00:27:45.512Z,61.74
2018-05-03T00:28:45.497Z,61.24
2018-05-03T00:29:45.513Z,61.42
2018-05-03T00:30:45.529Z,60.79
2018-05-03T00:31:45.636Z,62.14
2018-05-03T00:32:45.488Z,62.04
2018-05-03T00:33:45.626Z,62.24
2018-05-03T00:34:45.505Z,61.95
2018-05-03T00:35:45.516Z,62.02
2018-05-03T00:36:45.516Z,62.03
2018-05-03T00:37:45.677Z,62.27
2018-05-03T00:38:45.490Z,62.61
2018-05-03T00:39:45.503Z,62.42
2018-05-03T00:40:45.498Z,62.61
2018-05-03T00:41:45.692Z,63.17
2018-05-03T00:42:45.512Z,61.59
2018-05-03T00:43:45.509Z,61.73
2018-05-03T00:44:45.582Z,61.57
2018-05-03T00:45:45.965Z,62.41
2018-05-03T00:46:45.503Z,61.8
2018-05-03T00:47:45.507Z,62.25
2018-05-03T00:48:45.508Z,62.76
2018-05-03T00:49:45.513Z,63.11
2018-05-03T00:50:45.510Z,62.86
2018-05-03T00:51:45.516Z,62.03
2018-05-03T00:52:45.487Z,62.74
2018-05-03T00:53:45.500Z,62.76
2018-05-03T00:54:45.532Z,62.04
2018-05-03T00:55:45.506Z,62
2018-05-03T00:56:45.513Z,63.15
2018-05-03T00:57:45.515Z,63.12
2018-05-03T00:58:45.531Z,62.87
2018-05-03T00:59:45.525Z,62.98
2018-05-03T01:00:45.490Z,62.33
2018-05-03T01:01:45.503Z,62.84
2018-05-03T01:02:45.597Z,62.69
2018-05-03T01:03:45.513Z,62.76
2018-05-03T01:04:45.505Z,62.85
2018-05-03T01:05:45.505Z,63.1
2018-05-03T01:06:45.515Z,63.22
2018-05-03T01:07:45.549Z,63.04
2018-05-03T01:08:45.530Z,62.87
2018-05-03T01:09:45.512Z,63.12
2018-05-03T01:10:45.534Z,63.21
2018-05-03T01:11:45.516Z,62.8
2018-05-03T01:12:45.532Z,62.36
2018-05-03T01:13:45.537Z,63.1
2018-05-03T01:14:45.516Z,63.66
2018-05-03T01:15:45.555Z,62.88
2018-05-03T01:16:45.569Z,62.81
2018-05-03T01:17:45.548Z,63.04
2018-05-03T01:18:45.536Z,63.18
2018-05-03T01:19:45.557Z,63.21
2018-05-03T01:20:45.606Z,64
2018-05-03T01:21:45.552Z,64.07
2018-05-03T01:22:45.515Z,64.69
2018-05-03T01:23:45.594Z,63.72
2018-05-03T01:24:45.506Z,64.99
2018-05-03T01:25:45.518Z,64.33
2018-05-03T01:26:45.531Z,65.15
2018-05-03T01:27:45.666Z,65.48
2018-05-03T01:28:45.514Z,64.88
2018-05-03T01:29:45.518Z,64.34
2018-05-03T01:30:45.526Z,65.03
2018-05-03T01:31:45.536Z,65.16
2018-05-03T01:32:45.530Z,65.45
2018-05-03T01:33:45.524Z,65.06
2018-05-03T01:34:45.511Z,65.3
2018-05-03T01:35:45.507Z,65.51
2018-05-03T01:36:45.510Z,65.41
2018-05-03T01:37:45.519Z,65.62
2018-05-03T01:38:45.599Z,65.43
2018-05-03T01:39:45.520Z,65.51
2018-05-03T01:40:45.510Z,65.38
2018-05-03T01:41:45.518Z,65.56
2018-05-03T01:42:45.542Z,65.58
2018-05-03T01:43:45.542Z,64.69
2018-05-03T01:44:45.528Z,64.74
2018-05-03T01:45:45.551Z,64.99
2018-05-03T01:46:45.544Z,65.17
2018-05-03T01:47:45.557Z,64.71
2018-05-03T01:48:45.696Z,64.9
2018-05-03T01:49:45.733Z,65.42
2018-05-03T01:50:45.547Z,64.16
2018-05-03T01:51:45.531Z,64.38
2018-05-03T01:52:45.551Z,65.09
2018-05-03T01:53:45.550Z,63.7
2018-05-03T01:54:45.548Z,63.89
2018-05-03T01:55:45.538Z,63.97
2018-05-03T01:56:45.541Z,64.01
2018-05-03T01:57:45.554Z,63.87
2018-05-03T01:58:45.555Z,65.2
2018-05-03T01:59:45.532Z,64.64
2018-05-03T02:00:45.545Z,64.6
2018-05-03T02:01:45.547Z,64.45
2018-05-03T02:02:45.544Z,65.08
2018-05-03T02:03:45.576Z,65.31
2018-05-03T02:04:45.527Z,65.39
2018-05-03T02:05:45.531Z,65.57
2018-05-03T02:06:45.555Z,64.98
2018-05-03T02:07:45.540Z,64.79
2018-05-03T02:08:45.543Z,64.48
2018-05-03T02:09:45.534Z,65.25
2018-05-03T02:10:45.563Z,65.63
2018-05-03T02:11:45.538Z,65.45
2018-05-03T02:12:45.558Z,65.38
2018-05-03T02:13:45.543Z,64.86
2018-05-03T02:14:45.562Z,65.65
2018-05-03T02:15:45.527Z,65.86
2018-05-03T02:16:45.556Z,65.62
2018-05-03T02:17:45.634Z,66.36
2018-05-03T02:18:45.547Z,66.35
2018-05-03T02:19:45.555Z,65.3
2018-05-03T02:20:45.552Z,66.26
2018-05-03T02:21:45.567Z,65.5
2018-05-03T02:22:45.560Z,65.88
2018-05-03T02:23:45.565Z,66.14
2018-05-03T02:24:45.540Z,66.01
2018-05-03T02:25:45.545Z,65.44
2018-05-03T02:26:45.542Z,65.4
2018-05-03T02:27:45.530Z,65.54
2018-05-03T02:28:45.559Z,66.55
2018-05-03T02:29:45.544Z,66.66
2018-05-03T02:30:45.555Z,66.97
2018-05-03T02:31:45.640Z,66.72
2018-05-03T02:32:45.546Z,66.94
2018-05-03T02:33:45.551Z,66.66
2018-05-03T02:34:45.571Z,67.08
2018-05-03T02:35:45.553Z,66.89
2018-05-03T02:36:45.558Z,67.02
2018-05-03T02:37:45.537Z,66.7
2018-05-03T02:38:45.538Z,66.03
2018-05-03T02:39:45.597Z,66.3
2018-05-03T02:40:45.577Z,66.03
2018-05-03T02:41:45.551Z,66.52
2018-05-03T02:42:45.682Z,67.36
2018-05-03T02:43:45.564Z,67.68
2018-05-03T02:44:45.609Z,67.53
2018-05-03T02:45:45.550Z,67.16
2018-05-03T02:46:45.614Z,67.54
2018-05-03T02:47:45.561Z,67.41
2018-05-03T02:48:45.559Z,67.2
2018-05-03T02:49:45.576Z,66.83
2018-05-03T02:50:45.700Z,67.45
2018-05-03T02:51:45.553Z,66.61
2018-05-03T02:52:45.581Z,66.38
2018-05-03T02:53:45.690Z,66.62
2018-05-03T02:54:45.567Z,66.69
2018-05-03T02:55:45.587Z,66.22
2018-05-03T02:56:45.589Z,66.41
2018-05-03T02:57:45.579Z,66.78
2018-05-03T02:58:45.550Z,66.79
2018-05-03T02:59:45.570Z,66.88
2018-05-03T03:00:45.554Z,67.06
2018-05-03T03:01:45.556Z,67.53
2018-05-03T03:02:45.551Z,68.05
2018-05-03T03:03:45.559Z,66.6
2018-05-03T03:04:45.560Z,68.17
2018-05-03T03:05:45.658Z,67.09
2018-05-03T03:06:45.588Z,66.85
2018-05-03T03:07:45.582Z,68.91
2018-05-03T03:08:45.592Z,68.88
2018-05-03T03:09:45.668Z,68.23
2018-05-03T03:10:45.583Z,68.91
2018-05-03T03:11:45.618Z,68.43
2018-05-03T03:12:45.572Z,68.2
2018-05-03T03:13:45.552Z,67.53
2018-05-03T03:14:45.580Z,67.71
2018-05-03T03:15:45.576Z,67.72
2018-05-03T03:16:45.576Z,67.24
2018-05-03T03:17:45.586Z,67.23
2018-05-03T03:18:45.574Z,68.89
2018-05-03T03:19:45.563Z,68.03
2018-05-03T03:20:45.584Z,67.92
2018-05-03T03:21:45.589Z,68.25
2018-05-03T03:22:45.567Z,67.21
2018-05-03T03:23:45.592Z,67.75
2018-05-03T03:24:45.579Z,68.13
2018-05-03T03:25:45.561Z,67.67
2018-05-03T03:26:45.578Z,67.33
2018-05-03T03:27:45.576Z,68.66
2018-05-03T03:28:45.571Z,67.87
2018-05-03T03:29:45.578Z,67.81
2018-05-03T03:30:45.630Z,67.49
2018-05-03T03:31:45.641Z,67.31
2018-05-03T03:32:45.751Z,67.7
2018-05-03T03:33:45.602Z,67.99
2018-05-03T03:34:45.576Z,67.2
2018-05-03T03:35:45.587Z,67.42
2018-05-03T03:36:45.598Z,66.76
2018-05-03T03:37:45.582Z,67.2
2018-05-03T03:38:45.754Z,66.9
2018-05-03T03:39:45.595Z,66.91
2018-05-03T03:40:45.653Z,67.43
2018-05-03T03:41:45.571Z,67.66
2018-05-03T03:42:45.578Z,67.8
2018-05-03T03:43:45.568Z,67.76
2018-05-03T03:44:45.611Z,67.82
2018-05-03T03:45:45.592Z,67.82
2018-05-03T03:46:45.577Z,67.82
2018-05-03T03:47:45.604Z,67.9
2018-05-03T03:48:45.579Z,67.92
2018-05-03T03:49:45.685Z,67.43
2018-05-03T03:50:45.624Z,67.05
2018-05-03T03:51:45.582Z,66.87
2018-05-03T03:52:45.668Z,66.76
2018-05-03T03:53:45.570Z,66.82
2018-05-03T03:54:45.720Z,66.52
2018-05-03T03:55:45.596Z,66.79
2018-05-03T03:56:45.624Z,66.25
2018-05-03T03:57:45.600Z,66.3
2018-05-03T03:58:45.613Z,66.17
2018-05-03T03:59:45.581Z,66.2
2018-05-03T04:00:45.587Z,66.42
2018-05-03T04:01:45.593Z,66.54
2018-05-03T04:02:45.589Z,66.81
2018-05-03T04:03:45.605Z,66.88
2018-05-03T04:04:45.604Z,66.61
2018-05-03T04:05:45.615Z,66.6
2018-05-03T04:06:45.588Z,66.81
2018-05-03T04:07:45.582Z,66.27
2018-05-03T04:08:45.587Z,66.2
2018-05-03T04:09:45.607Z,66.03
2018-05-03T04:10:45.603Z,66.66
2018-05-03T04:11:45.670Z,66.74
2018-05-03T04:12:45.631Z,66.55
2018-05-03T04:13:45.582Z,67.06
2018-05-03T04:14:45.622Z,66.29
2018-05-03T04:15:45.579Z,67.02
2018-05-03T04:16:45.584Z,66.89
2018-05-03T04:17:45.629Z,67.18
2018-05-03T04:18:45.612Z,66.96
2018-05-03T04:19:45.619Z,67.19
2018-05-03T04:20:45.589Z,67.33
2018-05-03T04:21:45.606Z,67.25
2018-05-03T04:22:45.613Z,67.37
2018-05-03T04:23:45.624Z,67.04
2018-05-03T04:24:45.611Z,66.69
2018-05-03T04:25:45.600Z,67.22
2018-05-03T04:26:45.620Z,66.63
2018-05-03T04:27:45.603Z,66.92
2018-05-03T04:28:45.583Z,67.55
2018-05-03T04:29:45.857Z,68.06
2018-05-03T04:30:45.611Z,68.15
2018-05-03T04:31:45.608Z,68.35
2018-05-03T04:32:45.606Z,69.68
2018-05-03T04:33:45.602Z,70.02
2018-05-03T04:34:45.621Z,70.53
2018-05-03T04:35:45.603Z,70.44
2018-05-03T04:36:45.620Z,70.68
2018-05-03T04:37:45.721Z,70.6
2018-05-03T04:38:45.810Z,70.26
2018-05-03T04:39:45.623Z,70.86
2018-05-03T04:40:45.598Z,70.71
2018-05-03T04:41:45.621Z,70.6
2018-05-03T04:42:45.621Z,70.98
2018-05-03T04:43:45.645Z,71
2018-05-03T04:44:45.633Z,71.08
2018-05-03T04:45:45.649Z,71.34
2018-05-03T04:46:45.602Z,71.34
2018-05-03T04:47:45.616Z,71.65
2018-05-03T04:48:45.620Z,71.81
2018-05-03T04:49:45.636Z,71.65
2018-05-03T04:50:45.802Z,71.66
2018-05-03T04:51:45.687Z,71.12
2018-05-03T04:52:45.608Z,71.22
2018-05-03T04:53:45.687Z,71.4
2018-05-03T04:54:45.811Z,70.85
2018-05-03T04:55:45.650Z,71.27
2018-05-03T04:56:45.640Z,71.19
2018-05-03T04:57:45.620Z,71.07
2018-05-03T04:58:45.615Z,71.37
2018-05-03T04:59:45.644Z,71.44
2018-05-03T05:00:45.624Z,71.52
2018-05-03T05:01:45.606Z,71.86
2018-05-03T05:02:45.624Z,71.86
2018-05-03T05:03:45.604Z,71.59
2018-05-03T05:04:45.684Z,72.06
2018-05-03T05:05:45.623Z,71.83
2018-05-03T05:06:45.604Z,71.91
2018-05-03T05:07:45.688Z,72.1
2018-05-03T05:08:45.617Z,71.88
2018-05-03T05:09:45.676Z,72.05
2018-05-03T05:10:45.612Z,71.8
2018-05-03T05:11:45.628Z,72
2018-05-03T05:12:45.626Z,72.18
2018-05-03T05:13:45.637Z,72.66
2018-05-03T05:14:45.640Z,72.39
2018-05-03T05:15:45.635Z,72.51
2018-05-03T05:16:45.633Z,72.96
2018-05-03T05:17:45.659Z,73.05
2018-05-03T05:18:45.628Z,73.32
2018-05-03T05:19:45.627Z,73.68
2018-05-03T05:20:45.627Z,73.27
2018-05-03T05:21:45.717Z,73.64
2018-05-03T05:22:45.635Z,73.82
2018-05-03T05:23:45.616Z,73.78
2018-05-03T05:24:45.635Z,73.6
2018-05-03T05:25:45.632Z,73.43
2018-05-03T05:26:45.619Z,73.27
2018-05-03T05:27:45.634Z,73.54
2018-05-03T05:28:45.612Z,73.35
2018-05-03T05:29:45.656Z,73.38
2018-05-03T05:30:45.711Z,73.55
2018-05-03T05:31:45.652Z,73.55
2018-05-03T05:32:45.641Z,73
2018-05-03T05:33:45.651Z,73.15
2018-05-03T05:34:45.637Z,73.69
2018-05-03T05:35:45.632Z,73.2
2018-05-03T05:36:45.621Z,72.74
2018-05-03T05:37:45.628Z,73.1
2018-05-03T05:38:45.720Z,73.03
2018-05-03T05:39:45.652Z,72.85
2018-05-03T05:40:45.637Z,73.18
2018-05-03T05:41:45.615Z,73.13
2018-05-03T05:42:45.650Z,72.6
2018-05-03T05:43:45.644Z,73.06
2018-05-03T05:44:45.743Z,72.92
2018-05-03T05:45:45.693Z,72.97
2018-05-03T05:46:45.652Z,73.08
2018-05-03T05:47:45.648Z,73.07
2018-05-03T05:48:45.658Z,72.92
2018-05-03T05:49:45.618Z,73.12
2018-05-03T05:50:45.614Z,72.97
2018-05-03T05:51:45.698Z,72.61
2018-05-03T05:52:45.631Z,72.78
2018-05-03T05:53:45.663Z,72.53
2018-05-03T05:54:45.654Z,72.62
2018-05-03T05:55:45.645Z,72.41
2018-05-03T05:56:45.677Z,72.99
2018-05-03T05:57:45.639Z,72.86
2018-05-03T05:58:45.646Z,72.47
2018-05-03T05:59:45.671Z,72.18
2018-05-03T06:00:45.620Z,72.5
2018-05-03T06:01:45.818Z,72.01
2018-05-03T06:02:45.640Z,71.98
2018-05-03T06:03:45.612Z,71.23
2018-05-03T06:04:45.627Z,71.56
2018-05-03T06:05:45.628Z,71.58
2018-05-03T06:06:45.768Z,71.14
2018-05-03T06:07:45.635Z,71.02
2018-05-03T06:08:45.634Z,71.14
2018-05-03T06:09:45.668Z,71.17
2018-05-03T06:10:45.642Z,71.48
2018-05-03T06:11:45.657Z,71.48
2018-05-03T06:12:45.641Z,71.29
2018-05-03T06:13:45.639Z,71.21
2018-05-03T06:14:45.634Z,70.98
2018-05-03T06:15:45.735Z,71.11
2018-05-03T06:16:45.642Z,71.68
2018-05-03T06:17:45.654Z,71.57
2018-05-03T06:18:45.650Z,72.32
2018-05-03T06:19:45.622Z,72.68
2018-05-03T06:20:45.656Z,73.04
2018-05-03T06:21:45.741Z,71.65
2018-05-03T06:22:45.642Z,72.69
2018-05-03T06:23:45.640Z,72.31
2018-05-03T06:24:45.673Z,72.46
2018-05-03T06:25:45.653Z,73.35
2018-05-03T06:26:45.642Z,72.83
2018-05-03T06:27:45.648Z,72.82
2018-05-03T06:28:45.696Z,72.64
2018-05-03T06:29:45.644Z,73.22
2018-05-03T06:30:45.687Z,73.37
2018-05-03T06:31:45.661Z,72.99
2018-05-03T06:32:45.648Z,73.2
2018-05-03T06:33:45.658Z,72.46
2018-05-03T06:34:46.901Z,72.41
2018-05-03T06:35:45.655Z,72.9
2018-05-03T06:36:45.641Z,72.82
2018-05-03T06:37:45.683Z,73.1
2018-05-03T06:38:45.720Z,72.87
2018-05-03T06:39:45.646Z,71.86
2018-05-03T06:40:45.715Z,71.51
2018-05-03T06:41:45.653Z,72.15
2018-05-03T06:42:45.681Z,72.6
2018-05-03T06:43:45.633Z,72.08
2018-05-03T06:44:45.671Z,71.46
2018-05-03T06:45:45.645Z,71.83
2018-05-03T06:46:45.647Z,71
2018-05-03T06:47:45.759Z,71.64
2018-05-03T06:48:45.649Z,70.82
2018-05-03T06:49:45.662Z,71.22
2018-05-03T06:50:45.665Z,71.29
2018-05-03T06:51:45.645Z,71.68
2018-05-03T06:52:45.641Z,71.03
2018-05-03T06:53:45.703Z,70.79
2018-05-03T06:54:45.823Z,70.17
2018-05-03T06:55:45.640Z,70.62
2018-05-03T06:56:45.661Z,70.19
2018-05-03T06:57:45.655Z,69.22
2018-05-03T06:58:45.642Z,68.37
2018-05-03T06:59:45.653Z,68.18
2018-05-03T07:00:45.646Z,67.83
2018-05-03T07:01:45.664Z,66.61
2018-05-03T07:02:45.663Z,67.21
2018-05-03T07:03:45.666Z,66.25
2018-05-03T07:04:45.653Z,66.28
2018-05-03T07:05:45.656Z,66.19
2018-05-03T07:06:45.682Z,66.46
2018-05-03T07:07:45.678Z,66.47
2018-05-03T07:08:45.656Z,66.63
2018-05-03T07:09:45.662Z,65.82
2018-05-03T07:10:45.654Z,65.93
2018-05-03T07:11:45.672Z,65.81
2018-05-03T07:12:45.662Z,65.83
2018-05-03T07:13:45.656Z,65.02
2018-05-03T07:14:45.682Z,65.7
2018-05-03T07:15:45.654Z,65
2018-05-03T07:16:45.659Z,65.67
2018-05-03T07:17:45.675Z,64.58
2018-05-03T07:18:45.666Z,65.19
2018-05-03T07:19:45.671Z,64.79
2018-05-03T07:20:45.685Z,64.87
2018-05-03T07:21:45.707Z,64.35
2018-05-03T07:22:45.662Z,64.4
2018-05-03T07:23:45.690Z,64.46
2018-05-03T07:24:45.669Z,64.52
2018-05-03T07:25:45.671Z,64.23
2018-05-03T07:26:45.657Z,63.86
2018-05-03T07:27:45.690Z,64
2018-05-03T07:28:45.678Z,63.37
2018-05-03T07:29:45.671Z,62.72
2018-05-03T07:30:45.698Z,62.42
2018-05-03T07:31:45.689Z,62.95
2018-05-03T07:32:45.702Z,62.44
2018-05-03T07:33:45.670Z,62.42
2018-05-03T07:34:45.712Z,62.16
2018-05-03T07:35:45.693Z,62.68
2018-05-03T07:36:45.686Z,62.43
2018-05-03T07:37:45.699Z,62.21
2018-05-03T07:38:45.686Z,62.1
2018-05-03T07:39:45.676Z,62.3
2018-05-03T07:40:45.753Z,62.49
2018-05-03T07:41:45.668Z,62.39
2018-05-03T07:42:45.742Z,62.48
2018-05-03T07:43:45.703Z,62.19
2018-05-03T07:44:45.744Z,62.5
2018-05-03T07:45:46.049Z,62.49
2018-05-03T07:46:45.703Z,62.52
2018-05-03T07:47:45.695Z,62.77
2018-05-03T07:48:45.722Z,62.14
2018-05-03T07:49:45.672Z,62.29
2018-05-03T07:50:45.700Z,62.18
2018-05-03T07:51:45.711Z,62.38
2018-05-03T07:52:45.713Z,61.86
2018-05-03T07:53:45.684Z,61.66
2018-05-03T07:54:45.676Z,61.85
2018-05-03T07:55:45.677Z,61.81
2018-05-03T07:56:45.740Z,61.85
2018-05-03T07:57:45.716Z,61.58
2018-05-03T07:58:45.688Z,62.24
2018-05-03T07:59:45.670Z,61.65
2018-05-03T08:00:45.685Z,61.81
2018-05-03T08:01:45.690Z,61.31
2018-05-03T08:02:45.690Z,61.1
2018-05-03T08:03:45.685Z,60.67
2018-05-03T08:04:45.847Z,60.7
2018-05-03T08:05:45.687Z,60.41
2018-05-03T08:06:45.704Z,59.83
2018-05-03T08:07:46.520Z,60.12
2018-05-03T08:08:45.752Z,60.42
2018-05-03T08:09:45.688Z,59.68
2018-05-03T08:10:45.680Z,59.86
2018-05-03T08:11:45.689Z,59.83
2018-05-03T08:12:45.674Z,60.26
2018-05-03T08:13:45.673Z,60.37
2018-05-03T08:14:45.683Z,60.45
2018-05-03T08:15:45.685Z,60.4
2018-05-03T08:16:45.690Z,60.3
2018-05-03T08:17:45.692Z,60.38
2018-05-03T08:18:45.693Z,60.2
2018-05-03T08:19:45.688Z,60.67
2018-05-03T08:20:45.721Z,60.51
2018-05-03T08:21:45.716Z,60.95
2018-05-03T08:22:45.687Z,61.05
2018-05-03T08:23:45.709Z,61.23
2018-05-03T08:24:45.693Z,61.36
2018-05-03T08:25:45.700Z,61.42
2018-05-03T08:26:45.715Z,61.73
2018-05-03T08:27:45.814Z,61.32
2018-05-03T08:28:45.702Z,61.35
2018-05-03T08:29:45.684Z,61.09
2018-05-03T08:30:45.716Z,61.67
2018-05-03T08:31:45.774Z,62.09
2018-05-03T08:32:45.772Z,62.27
2018-05-03T08:33:45.767Z,62.12
2018-05-03T08:34:45.698Z,61.33
2018-05-03T08:35:45.699Z,61.9
2018-05-03T08:36:45.709Z,61.99
2018-05-03T08:37:45.708Z,61.89
2018-05-03T08:38:45.707Z,61.88
2018-05-03T08:39:45.707Z,61.88
2018-05-03T08:40:45.720Z,62.31
2018-05-03T08:41:45.849Z,62.29
2018-05-03T08:42:45.705Z,62.4
2018-05-03T08:43:45.701Z,62.01
2018-05-03T08:44:45.719Z,62.35
2018-05-03T08:45:45.712Z,62.18
2018-05-03T08:46:45.731Z,62.14
2018-05-03T08:47:45.738Z,61.42
2018-05-03T08:48:45.706Z,61.38
2018-05-03T08:49:45.753Z,61.21
2018-05-03T08:50:45.692Z,61.28
2018-05-03T08:51:45.717Z,60.58
2018-05-03T08:52:45.731Z,60.73
2018-05-03T08:53:45.718Z,61.22
2018-05-03T08:54:45.746Z,60.76
2018-05-03T08:55:45.743Z,61.05
2018-05-03T08:56:45.721Z,61.25
2018-05-03T08:57:45.725Z,60.97
2018-05-03T08:58:45.881Z,61.16
2018-05-03T08:59:45.763Z,61.53
2018-05-03T09:00:45.691Z,61.53
2018-05-03T09:01:45.725Z,61.15
2018-05-03T09:02:45.721Z,61.33
2018-05-03T09:03:45.705Z,61.01
2018-05-03T09:04:45.718Z,60.18
2018-05-03T09:05:45.886Z,60.69
2018-05-03T09:06:45.719Z,60.45
2018-05-03T09:07:45.758Z,60.59
2018-05-03T09:08:45.736Z,60.51
2018-05-03T09:09:45.863Z,60.2
2018-05-03T09:10:45.718Z,59.82
2018-05-03T09:11:45.755Z,59.91
2018-05-03T09:12:45.729Z,60
2018-05-03T09:13:45.724Z,59.83
2018-05-03T09:14:45.832Z,59.95
2018-05-03T09:15:45.745Z,59.57
2018-05-03T09:16:45.732Z,58.43
2018-05-03T09:17:45.764Z,57.83
2018-05-03T09:18:45.707Z,56.67
2018-05-03T09:19:45.727Z,57.33
2018-05-03T09:20:45.720Z,58.33
2018-05-03T09:21:45.723Z,57.53
2018-05-03T09:22:45.736Z,57.83
2018-05-03T09:23:45.730Z,58.17
2018-05-03T09:24:45.716Z,58.39
2018-05-03T09:25:45.731Z,57.79
2018-05-03T09:26:45.724Z,57.86
2018-05-03T09:27:45.731Z,58.1
2018-05-03T09:28:45.729Z,57.01
2018-05-03T09:29:45.756Z,56.36
2018-05-03T09:30:45.736Z,56.75
2018-05-03T09:31:45.734Z,56.42
2018-05-03T09:32:45.715Z,56.88
2018-05-03T09:33:45.748Z,57.04
2018-05-03T09:34:45.741Z,57.26
2018-05-03T09:35:45.762Z,57.05
2018-05-03T09:36:45.768Z,56.26
2018-05-03T09:37:45.730Z,56.58
2018-05-03T09:38:45.739Z,57.25
2018-05-03T09:39:45.739Z,56.89
2018-05-03T09:40:45.758Z,56.46
2018-05-03T09:41:45.738Z,56.85
2018-05-03T09:42:45.726Z,57.29
2018-05-03T09:43:45.734Z,57.37
2018-05-03T09:44:45.805Z,56.61
2018-05-03T09:45:45.778Z,57.13
2018-05-03T09:46:45.788Z,57.16
2018-05-03T09:47:45.883Z,55.54
2018-05-03T09:48:45.749Z,55.04
2018-05-03T09:49:45.891Z,55.16
2018-05-03T09:50:45.811Z,56.01
2018-05-03T09:51:45.815Z,55.94
2018-05-03T09:52:45.865Z,56.42
2018-05-03T09:53:45.812Z,55.62
2018-05-03T09:54:45.759Z,55.42
2018-05-03T09:55:45.752Z,55.09
2018-05-03T09:56:45.722Z,55.38
2018-05-03T09:57:45.832Z,55.53
2018-05-03T09:58:45.778Z,55.82
2018-05-03T09:59:45.850Z,55.38
2018-05-03T10:00:45.797Z,56.47
2018-05-03T10:01:45.764Z,55.7
2018-05-03T10:02:45.798Z,56.15
2018-05-03T10:03:45.734Z,56.14
2018-05-03T10:04:45.803Z,56.37
2018-05-03T10:05:45.829Z,55.54
2018-05-03T10:06:45.768Z,55.68
2018-05-03T10:07:45.770Z,55.52
2018-05-03T10:08:45.748Z,55.59
2018-05-03T10:09:45.751Z,56.25
2018-05-03T10:10:45.778Z,56.09
2018-05-03T10:11:45.759Z,56
2018-05-03T10:12:45.770Z,55.71
2018-05-03T10:13:45.744Z,55.84
2018-05-03T10:14:45.782Z,55.5
2018-05-03T10:15:45.795Z,55.37
2018-05-03T10:16:45.773Z,55.32
2018-05-03T10:17:45.779Z,55.66
2018-05-03T10:18:45.898Z,55.24
2018-05-03T10:19:45.866Z,55.1
2018-05-03T10:20:45.760Z,55.47
2018-05-03T10:21:45.757Z,54.59
2018-05-03T10:22:45.778Z,55.01
2018-05-03T10:23:45.867Z,55.07
2018-05-03T10:24:45.813Z,55.34
2018-05-03T10:25:45.768Z,54.34
2018-05-03T10:26:45.806Z,55.11
2018-05-03T10:27:45.801Z,54.99
2018-05-03T10:28:45.783Z,55.08
2018-05-03T10:29:45.739Z,55.05
2018-05-03T10:30:45.796Z,54.88
2018-05-03T10:31:45.770Z,54.55
2018-05-03T10:32:45.769Z,54.94
2018-05-03T10:33:45.795Z,54.99
2018-05-03T10:34:45.784Z,54.85
2018-05-03T10:35:45.828Z,55.47
2018-05-03T10:36:45.769Z,54.57
2018-05-03T10:37:45.761Z,54.24
2018-05-03T10:38:45.751Z,53.97
2018-05-03T10:39:45.772Z,53.75
2018-05-03T10:40:45.768Z,54.07
2018-05-03T10:41:45.771Z,54.46
2018-05-03T10:42:45.775Z,54.73
2018-05-03T10:43:46.006Z,53.9
2018-05-03T10:44:45.772Z,54.22
2018-05-03T10:45:45.766Z,54.01
2018-05-03T10:46:45.774Z,53.99
2018-05-03T10:47:45.772Z,53.93
2018-05-03T10:48:45.788Z,54.05
2018-05-03T10:49:45.789Z,53.92
2018-05-03T10:50:45.796Z,53.88
2018-05-03T10:51:45.801Z,53.5
2018-05-03T10:52:45.832Z,54.07
2018-05-03T10:53:45.758Z,53.87
2018-05-03T10:54:45.893Z,53.15
2018-05-03T10:55:45.826Z,52.82
2018-05-03T10:56:45.844Z,53.47
2018-05-03T10:57:45.784Z,52.49
2018-05-03T10:58:45.799Z,52.74
2018-05-03T10:59:45.777Z,51.81
2018-05-03T11:00:45.793Z,52.65
2018-05-03T11:01:45.819Z,51.99
2018-05-03T11:02:45.845Z,51.63
2018-05-03T11:03:46.078Z,52.71
2018-05-03T11:04:45.803Z,51.5
2018-05-03T11:05:45.805Z,51.75
2018-05-03T11:06:45.827Z,52.36
2018-05-03T11:07:45.805Z,51.52
2018-05-03T11:08:45.824Z,51.42
2018-05-03T11:09:45.769Z,50.96
2018-05-03T11:10:45.796Z,51.35
2018-05-03T11:11:45.771Z,51.08
2018-05-03T11:12:45.776Z,51.69
2018-05-03T11:13:45.789Z,50.9
2018-05-03T11:14:45.877Z,50.77
2018-05-03T11:15:45.802Z,51.23
2018-05-03T11:16:45.814Z,51.38
2018-05-03T11:17:45.848Z,51.31
2018-05-03T11:18:45.816Z,50.88
2018-05-03T11:19:45.799Z,50.06
2018-05-03T11:20:45.904Z,50.31
2018-05-03T11:21:45.798Z,51.14
2018-05-03T11:22:45.828Z,50.05
2018-05-03T11:23:45.975Z,49.7
2018-05-03T11:24:45.895Z,49.4
2018-05-03T11:25:45.832Z,50.42
2018-05-03T11:26:45.788Z,50.13
2018-05-03T11:27:45.865Z,50.18
2018-05-03T11:28:45.853Z,50.11
2018-05-03T11:29:45.947Z,49.83
2018-05-03T11:30:45.938Z,49.61
2018-05-03T11:31:45.821Z,49.37
2018-05-03T11:32:45.778Z,49.68
2018-05-03T11:33:45.783Z,49.02
2018-05-03T11:34:45.818Z,48.4
2018-05-03T11:35:45.788Z,47.35
2018-05-03T11:36:45.881Z,47.84
2018-05-03T11:37:45.809Z,47.9
2018-05-03T11:38:45.811Z,47.19
2018-05-03T11:39:45.814Z,45.83
2018-05-03T11:40:45.838Z,45.46
2018-05-03T11:41:45.797Z,45.98
2018-05-03T11:42:45.890Z,46.03
2018-05-03T11:43:45.792Z,45.76
2018-05-03T11:44:45.800Z,46.3
2018-05-03T11:45:45.860Z,46.07
2018-05-03T11:46:45.803Z,46.44
2018-05-03T11:47:45.824Z,46.17
2018-05-03T11:48:45.832Z,46.03
2018-05-03T11:49:45.783Z,45.46
2018-05-03T11:50:45.806Z,45.58
2018-05-03T11:51:45.787Z,45.8
2018-05-03T11:52:45.831Z,46.01
2018-05-03T11:53:45.800Z,45.9
2018-05-03T11:54:45.873Z,46.59
2018-05-03T11:55:45.848Z,46.44
2018-05-03T11:56:45.789Z,47.07
2018-05-03T11:57:46.003Z,46.44
2018-05-03T11:58:45.799Z,46.88
2018-05-03T11:59:45.865Z,47.4
2018-05-03T12:00:45.804Z,46.27
2018-05-03T12:01:45.789Z,45.87
2018-05-03T12:02:45.813Z,45.84
2018-05-03T12:03:45.810Z,45.44
2018-05-03T12:04:45.854Z,44.84
2018-05-03T12:05:45.808Z,44.97
2018-05-03T12:06:46.072Z,44.55
2018-05-03T12:07:45.867Z,44.21
2018-05-03T12:08:45.819Z,44.42
2018-05-03T12:09:45.858Z,44.55
2018-05-03T12:10:45.823Z,44.98
2018-05-03T12:11:45.927Z,45.03
2018-05-03T12:12:45.832Z,44.59
2018-05-03T12:13:45.847Z,42.96
2018-05-03T12:14:45.907Z,44.03
2018-05-03T12:15:45.825Z,44.24
2018-05-03T12:16:45.819Z,44.44
2018-05-03T12:17:45.872Z,43.88
2018-05-03T12:18:45.946Z,44.39
2018-05-03T12:19:45.832Z,45.01
2018-05-03T12:20:45.830Z,45.13
2018-05-03T12:21:45.844Z,45.01
2018-05-03T12:22:45.857Z,44.23
2018-05-03T12:23:45.818Z,44.32
2018-05-03T12:24:45.836Z,44.5
2018-05-03T12:25:45.878Z,44.11
2018-05-03T12:26:45.978Z,44.87
2018-05-03T12:27:45.824Z,44.94
2018-05-03T12:28:45.963Z,45.15
2018-05-03T12:29:45.865Z,45.24
2018-05-03T12:30:45.825Z,45.67
2018-05-03T12:31:45.881Z,45.6
2018-05-03T12:32:45.822Z,46.28
2018-05-03T12:33:45.819Z,46.21
2018-05-03T12:34:45.960Z,46.6
2018-05-03T12:35:45.845Z,46.7
2018-05-03T12:36:45.827Z,47.73
2018-05-03T12:37:45.919Z,45.76
2018-05-03T12:38:45.894Z,46.41
2018-05-03T12:39:45.828Z,46.53
2018-05-03T12:40:45.841Z,46.13
2018-05-03T12:41:45.847Z,46.51
2018-05-03T12:42:45.839Z,45.43
2018-05-03T12:43:45.807Z,43.95
2018-05-03T12:44:45.811Z,44.16
2018-05-03T12:45:45.819Z,45.62
2018-05-03T12:46:45.821Z,45.21
2018-05-03T12:47:45.857Z,46.3
2018-05-03T12:48:45.835Z,45.49
2018-05-03T12:49:45.828Z,46.72
2018-05-03T12:50:45.826Z,45.9
2018-05-03T12:51:45.844Z,45.65
2018-05-03T12:52:45.858Z,45.65
2018-05-03T12:53:45.864Z,44.67
2018-05-03T12:54:45.832Z,44.7
2018-05-03T12:55:45.836Z,44.78
2018-05-03T12:56:45.829Z,45.09